sensor_id;sensor_type;location;lat;lon;timestamp;P1;durP1;ratioP1;P2;durP2;ratioP2
13404;SDS011;6773;51.192;7.024;2023-07-31T00:00:50;7.60;;;4.77;;
13404;SDS011;6773;51.192;7.024;2023-07-31T00:03:16;12.00;;;5.20;;
13404;SDS011;6773;51.192;7.024;2023-07-31T00:05:42;13.87;;;5.53;;
13404;SDS011;6773;51.192;7.024;2023-07-31T00:08:08;7.50;;;4.97;;
13404;SDS011;6773;51.192;7.024;2023-07-31T00:10:34;11.47;;;5.07;;
13404;SDS011;6773;51.192;7.024;2023-07-31T00:13:00;8.60;;;5.03;;
13404;SDS011;6773;51.192;7.024;2023-07-31T00:15:26;10.70;;;4.40;;
13404;SDS011;6773;51.192;7.024;2023-07-31T00:17:52;13.17;;;4.90;;
13404;SDS011;6773;51.192;7.024;2023-07-31T00:20:18;9.90;;;4.70;;
13404;SDS011;6773;51.192;7.024;2023-07-31T00:22:44;9.40;;;5.27;;
13404;SDS011;6773;51.192;7.024;2023-07-31T00:25:10;8.87;;;4.07;;
13404;SDS011;6773;51.192;7.024;2023-07-31T00:27:35;9.77;;;4.30;;
13404;SDS011;6773;51.192;7.024;2023-07-31T00:30:01;9.20;;;4.53;;
13404;SDS011;6773;51.192;7.024;2023-07-31T00:32:27;10.07;;;4.80;;
13404;SDS011;6773;51.192;7.024;2023-07-31T00:34:53;8.83;;;4.53;;
13404;SDS011;6773;51.192;7.024;2023-07-31T00:37:19;9.87;;;4.63;;
13404;SDS011;6773;51.192;7.024;2023-07-31T00:39:45;7.33;;;4.83;;
13404;SDS011;6773;51.192;7.024;2023-07-31T00:42:11;9.23;;;4.73;;
13404;SDS011;6773;51.192;7.024;2023-07-31T00:44:37;13.93;;;4.47;;
13404;SDS011;6773;51.192;7.024;2023-07-31T00:47:03;7.80;;;4.70;;
13404;SDS011;6773;51.192;7.024;2023-07-31T00:49:29;10.83;;;5.60;;
13404;SDS011;6773;51.192;7.024;2023-07-31T00:51:55;8.37;;;4.83;;
13404;SDS011;6773;51.192;7.024;2023-07-31T00:54:22;10.43;;;4.57;;
13404;SDS011;6773;51.192;7.024;2023-07-31T00:56:48;11.80;;;4.73;;
13404;SDS011;6773;51.192;7.024;2023-07-31T00:59:17;11.27;;;5.47;;
13404;SDS011;6773;51.192;7.024;2023-07-31T01:01:43;13.47;;;5.23;;
13404;SDS011;6773;51.192;7.024;2023-07-31T01:04:10;9.93;;;4.43;;
13404;SDS011;6773;51.192;7.024;2023-07-31T01:06:44;9.47;;;4.47;;
13404;SDS011;6773;51.192;7.024;2023-07-31T01:12:06;10.30;;;4.67;;
13404;SDS011;6773;51.192;7.024;2023-07-31T01:14:33;7.63;;;4.27;;
13404;SDS011;6773;51.192;7.024;2023-07-31T01:16:59;8.10;;;4.37;;
13404;SDS011;6773;51.192;7.024;2023-07-31T01:19:25;9.87;;;4.37;;
13404;SDS011;6773;51.192;7.024;2023-07-31T01:27:14;7.77;;;4.23;;
13404;SDS011;6773;51.192;7.024;2023-07-31T01:32:18;8.00;;;4.00;;
13404;SDS011;6773;51.192;7.024;2023-07-31T01:34:45;9.97;;;4.60;;
13404;SDS011;6773;51.192;7.024;2023-07-31T01:37:11;8.77;;;4.43;;
13404;SDS011;6773;51.192;7.024;2023-07-31T01:39:36;9.40;;;4.20;;
13404;SDS011;6773;51.192;7.024;2023-07-31T01:42:03;11.73;;;4.17;;
13404;SDS011;6773;51.192;7.024;2023-07-31T01:44:29;12.27;;;4.87;;
13404;SDS011;6773;51.192;7.024;2023-07-31T01:46:55;11.23;;;4.10;;
13404;SDS011;6773;51.192;7.024;2023-07-31T01:49:21;6.90;;;3.83;;
13404;SDS011;6773;51.192;7.024;2023-07-31T01:51:47;8.27;;;4.23;;
13404;SDS011;6773;51.192;7.024;2023-07-31T01:54:13;10.17;;;4.00;;
13404;SDS011;6773;51.192;7.024;2023-07-31T01:56:39;10.57;;;4.07;;
13404;SDS011;6773;51.192;7.024;2023-07-31T01:59:05;9.57;;;4.13;;
13404;SDS011;6773;51.192;7.024;2023-07-31T02:01:31;10.83;;;4.20;;
13404;SDS011;6773;51.192;7.024;2023-07-31T02:03:57;8.80;;;3.80;;
13404;SDS011;6773;51.192;7.024;2023-07-31T02:06:23;10.93;;;4.47;;
13404;SDS011;6773;51.192;7.024;2023-07-31T02:08:49;11.93;;;4.00;;
13404;SDS011;6773;51.192;7.024;2023-07-31T02:11:15;15.90;;;5.10;;
13404;SDS011;6773;51.192;7.024;2023-07-31T02:13:41;8.80;;;4.20;;
13404;SDS011;6773;51.192;7.024;2023-07-31T02:16:07;11.43;;;4.47;;
13404;SDS011;6773;51.192;7.024;2023-07-31T02:18:33;7.20;;;3.90;;
13404;SDS011;6773;51.192;7.024;2023-07-31T02:20:59;8.63;;;4.30;;
13404;SDS011;6773;51.192;7.024;2023-07-31T02:23:25;10.30;;;5.00;;
13404;SDS011;6773;51.192;7.024;2023-07-31T02:25:51;9.23;;;4.60;;
13404;SDS011;6773;51.192;7.024;2023-07-31T02:28:17;8.43;;;4.13;;
13404;SDS011;6773;51.192;7.024;2023-07-31T02:30:46;11.90;;;5.00;;
13404;SDS011;6773;51.192;7.024;2023-07-31T02:33:11;7.80;;;3.70;;
13404;SDS011;6773;51.192;7.024;2023-07-31T02:35:38;8.83;;;4.27;;
13404;SDS011;6773;51.192;7.024;2023-07-31T02:38:03;8.37;;;4.30;;
13404;SDS011;6773;51.192;7.024;2023-07-31T02:40:29;10.07;;;4.43;;
13404;SDS011;6773;51.192;7.024;2023-07-31T02:42:55;8.80;;;3.90;;
13404;SDS011;6773;51.192;7.024;2023-07-31T02:45:21;8.93;;;4.23;;
13404;SDS011;6773;51.192;7.024;2023-07-31T02:47:47;9.07;;;3.85;;
13404;SDS011;6773;51.192;7.024;2023-07-31T02:50:13;7.37;;;4.40;;
13404;SDS011;6773;51.192;7.024;2023-07-31T02:52:39;9.43;;;4.07;;
13404;SDS011;6773;51.192;7.024;2023-07-31T02:55:05;12.80;;;4.67;;
13404;SDS011;6773;51.192;7.024;2023-07-31T02:57:32;7.90;;;3.67;;
13404;SDS011;6773;51.192;7.024;2023-07-31T02:59:58;6.53;;;4.47;;
13404;SDS011;6773;51.192;7.024;2023-07-31T03:02:24;11.07;;;4.10;;
13404;SDS011;6773;51.192;7.024;2023-07-31T03:04:50;7.80;;;3.70;;
13404;SDS011;6773;51.192;7.024;2023-07-31T03:07:15;8.03;;;4.17;;
13404;SDS011;6773;51.192;7.024;2023-07-31T03:09:41;6.23;;;3.63;;
13404;SDS011;6773;51.192;7.024;2023-07-31T03:12:08;9.50;;;4.27;;
13404;SDS011;6773;51.192;7.024;2023-07-31T03:14:34;5.97;;;3.80;;
13404;SDS011;6773;51.192;7.024;2023-07-31T03:17:00;6.40;;;4.23;;
13404;SDS011;6773;51.192;7.024;2023-07-31T03:19:26;8.03;;;4.13;;
13404;SDS011;6773;51.192;7.024;2023-07-31T03:21:52;6.27;;;3.83;;
13404;SDS011;6773;51.192;7.024;2023-07-31T03:24:17;8.23;;;3.90;;
13404;SDS011;6773;51.192;7.024;2023-07-31T03:26:43;8.47;;;3.90;;
13404;SDS011;6773;51.192;7.024;2023-07-31T03:29:09;9.07;;;4.37;;
13404;SDS011;6773;51.192;7.024;2023-07-31T03:31:34;6.27;;;4.10;;
13404;SDS011;6773;51.192;7.024;2023-07-31T03:34:00;8.73;;;4.30;;
13404;SDS011;6773;51.192;7.024;2023-07-31T03:36:26;7.43;;;3.63;;
13404;SDS011;6773;51.192;7.024;2023-07-31T03:38:52;5.87;;;3.77;;
13404;SDS011;6773;51.192;7.024;2023-07-31T03:41:18;6.45;;;4.38;;
13404;SDS011;6773;51.192;7.024;2023-07-31T03:43:46;8.57;;;4.40;;
13404;SDS011;6773;51.192;7.024;2023-07-31T03:46:16;9.57;;;4.10;;
13404;SDS011;6773;51.192;7.024;2023-07-31T03:48:41;9.13;;;4.50;;
13404;SDS011;6773;51.192;7.024;2023-07-31T03:51:07;8.30;;;4.30;;
13404;SDS011;6773;51.192;7.024;2023-07-31T03:53:33;10.57;;;4.37;;
13404;SDS011;6773;51.192;7.024;2023-07-31T03:55:59;10.53;;;5.33;;
13404;SDS011;6773;51.192;7.024;2023-07-31T03:58:25;7.97;;;4.30;;
13404;SDS011;6773;51.192;7.024;2023-07-31T04:00:51;5.67;;;3.87;;
13404;SDS011;6773;51.192;7.024;2023-07-31T04:03:17;7.60;;;3.83;;
13404;SDS011;6773;51.192;7.024;2023-07-31T04:05:43;8.63;;;4.17;;
13404;SDS011;6773;51.192;7.024;2023-07-31T04:08:09;11.50;;;4.10;;
13404;SDS011;6773;51.192;7.024;2023-07-31T04:10:35;7.50;;;3.93;;
13404;SDS011;6773;51.192;7.024;2023-07-31T04:13:01;10.52;;;4.30;;
13404;SDS011;6773;51.192;7.024;2023-07-31T04:15:27;10.37;;;4.67;;
13404;SDS011;6773;51.192;7.024;2023-07-31T04:17:53;8.07;;;3.93;;
13404;SDS011;6773;51.192;7.024;2023-07-31T04:20:19;10.20;;;4.60;;
13404;SDS011;6773;51.192;7.024;2023-07-31T04:22:45;11.33;;;4.80;;
13404;SDS011;6773;51.192;7.024;2023-07-31T04:25:11;11.33;;;5.23;;
13404;SDS011;6773;51.192;7.024;2023-07-31T04:27:37;7.47;;;4.47;;
13404;SDS011;6773;51.192;7.024;2023-07-31T04:30:03;8.40;;;3.97;;
13404;SDS011;6773;51.192;7.024;2023-07-31T04:32:29;8.53;;;4.27;;
13404;SDS011;6773;51.192;7.024;2023-07-31T04:34:55;8.13;;;4.37;;
13404;SDS011;6773;51.192;7.024;2023-07-31T04:37:21;5.73;;;4.27;;
13404;SDS011;6773;51.192;7.024;2023-07-31T04:39:47;8.93;;;4.40;;
13404;SDS011;6773;51.192;7.024;2023-07-31T04:42:13;8.27;;;4.57;;
13404;SDS011;6773;51.192;7.024;2023-07-31T04:44:39;6.97;;;4.50;;
13404;SDS011;6773;51.192;7.024;2023-07-31T04:47:05;10.43;;;5.13;;
13404;SDS011;6773;51.192;7.024;2023-07-31T04:49:32;14.20;;;5.05;;
13404;SDS011;6773;51.192;7.024;2023-07-31T04:51:58;9.00;;;4.73;;
13404;SDS011;6773;51.192;7.024;2023-07-31T04:54:24;8.43;;;4.68;;
13404;SDS011;6773;51.192;7.024;2023-07-31T04:56:50;8.43;;;4.40;;
13404;SDS011;6773;51.192;7.024;2023-07-31T04:59:17;10.52;;;4.93;;
13404;SDS011;6773;51.192;7.024;2023-07-31T05:01:43;8.03;;;5.27;;
13404;SDS011;6773;51.192;7.024;2023-07-31T05:04:11;11.70;;;5.10;;
13404;SDS011;6773;51.192;7.024;2023-07-31T05:06:37;9.40;;;5.20;;
13404;SDS011;6773;51.192;7.024;2023-07-31T05:09:03;7.90;;;4.67;;
13404;SDS011;6773;51.192;7.024;2023-07-31T05:11:29;12.63;;;5.70;;
13404;SDS011;6773;51.192;7.024;2023-07-31T05:13:55;11.85;;;5.40;;
13404;SDS011;6773;51.192;7.024;2023-07-31T05:16:21;10.20;;;5.17;;
13404;SDS011;6773;51.192;7.024;2023-07-31T05:18:47;10.25;;;5.40;;
13404;SDS011;6773;51.192;7.024;2023-07-31T05:21:12;10.23;;;4.70;;
13404;SDS011;6773;51.192;7.024;2023-07-31T05:23:39;10.60;;;5.80;;
13404;SDS011;6773;51.192;7.024;2023-07-31T05:26:05;9.15;;;5.05;;
13404;SDS011;6773;51.192;7.024;2023-07-31T05:28:31;11.17;;;5.10;;
13404;SDS011;6773;51.192;7.024;2023-07-31T05:31:00;15.00;;;4.63;;
13404;SDS011;6773;51.192;7.024;2023-07-31T05:33:30;7.15;;;4.47;;
13404;SDS011;6773;51.192;7.024;2023-07-31T05:35:56;9.27;;;4.73;;
13404;SDS011;6773;51.192;7.024;2023-07-31T05:38:22;8.90;;;4.40;;
13404;SDS011;6773;51.192;7.024;2023-07-31T05:40:49;8.32;;;4.50;;
13404;SDS011;6773;51.192;7.024;2023-07-31T05:43:15;9.03;;;5.40;;
13404;SDS011;6773;51.192;7.024;2023-07-31T05:45:42;7.93;;;4.37;;
13404;SDS011;6773;51.192;7.024;2023-07-31T05:48:08;9.55;;;4.72;;
13404;SDS011;6773;51.192;7.024;2023-07-31T05:50:34;6.33;;;4.50;;
13404;SDS011;6773;51.192;7.024;2023-07-31T05:52:59;9.67;;;4.90;;
13404;SDS011;6773;51.192;7.024;2023-07-31T05:55:25;8.23;;;4.90;;
13404;SDS011;6773;51.192;7.024;2023-07-31T05:57:54;8.30;;;4.20;;
13404;SDS011;6773;51.192;7.024;2023-07-31T06:00:20;6.43;;;4.05;;
13404;SDS011;6773;51.192;7.024;2023-07-31T06:02:47;7.57;;;4.43;;
13404;SDS011;6773;51.192;7.024;2023-07-31T06:05:13;5.68;;;4.15;;
13404;SDS011;6773;51.192;7.024;2023-07-31T06:07:39;8.30;;;4.43;;
13404;SDS011;6773;51.192;7.024;2023-07-31T06:10:05;11.70;;;4.20;;
13404;SDS011;6773;51.192;7.024;2023-07-31T06:12:35;8.33;;;4.77;;
13404;SDS011;6773;51.192;7.024;2023-07-31T06:15:01;7.90;;;4.20;;
13404;SDS011;6773;51.192;7.024;2023-07-31T06:17:28;6.93;;;4.30;;
13404;SDS011;6773;51.192;7.024;2023-07-31T06:19:55;6.22;;;4.50;;
13404;SDS011;6773;51.192;7.024;2023-07-31T06:22:21;4.50;;;3.63;;
13404;SDS011;6773;51.192;7.024;2023-07-31T06:24:47;8.83;;;4.30;;
13404;SDS011;6773;51.192;7.024;2023-07-31T06:27:13;6.40;;;4.17;;
13404;SDS011;6773;51.192;7.024;2023-07-31T06:29:39;6.75;;;4.18;;
13404;SDS011;6773;51.192;7.024;2023-07-31T06:32:06;6.60;;;4.27;;
13404;SDS011;6773;51.192;7.024;2023-07-31T06:34:32;8.83;;;5.03;;
13404;SDS011;6773;51.192;7.024;2023-07-31T06:36:57;7.95;;;4.82;;
13404;SDS011;6773;51.192;7.024;2023-07-31T06:39:23;9.73;;;5.37;;
13404;SDS011;6773;51.192;7.024;2023-07-31T06:41:49;4.82;;;4.32;;
13404;SDS011;6773;51.192;7.024;2023-07-31T06:44:15;7.67;;;4.60;;
13404;SDS011;6773;51.192;7.024;2023-07-31T06:46:42;5.82;;;4.45;;
13404;SDS011;6773;51.192;7.024;2023-07-31T06:49:08;9.33;;;4.73;;
13404;SDS011;6773;51.192;7.024;2023-07-31T06:51:34;8.27;;;4.87;;
13404;SDS011;6773;51.192;7.024;2023-07-31T06:54:01;7.95;;;4.57;;
13404;SDS011;6773;51.192;7.024;2023-07-31T06:56:27;9.57;;;5.30;;
13404;SDS011;6773;51.192;7.024;2023-07-31T06:58:53;9.27;;;5.23;;
13404;SDS011;6773;51.192;7.024;2023-07-31T07:01:19;8.55;;;4.60;;
13404;SDS011;6773;51.192;7.024;2023-07-31T07:03:45;8.07;;;4.50;;
13404;SDS011;6773;51.192;7.024;2023-07-31T07:06:11;9.10;;;4.47;;
13404;SDS011;6773;51.192;7.024;2023-07-31T07:08:37;7.78;;;4.78;;
13404;SDS011;6773;51.192;7.024;2023-07-31T07:11:02;9.25;;;4.93;;
13404;SDS011;6773;51.192;7.024;2023-07-31T07:13:28;11.38;;;4.78;;
13404;SDS011;6773;51.192;7.024;2023-07-31T07:15:54;8.05;;;4.70;;
13404;SDS011;6773;51.192;7.024;2023-07-31T07:18:20;7.63;;;4.63;;
13404;SDS011;6773;51.192;7.024;2023-07-31T07:20:47;8.27;;;5.13;;
13404;SDS011;6773;51.192;7.024;2023-07-31T07:23:14;7.13;;;4.38;;
13404;SDS011;6773;51.192;7.024;2023-07-31T07:25:41;7.90;;;4.47;;
13404;SDS011;6773;51.192;7.024;2023-07-31T07:28:07;5.97;;;4.30;;
13404;SDS011;6773;51.192;7.024;2023-07-31T07:30:33;8.88;;;5.28;;
13404;SDS011;6773;51.192;7.024;2023-07-31T07:32:59;12.83;;;4.63;;
13404;SDS011;6773;51.192;7.024;2023-07-31T07:35:24;9.93;;;4.00;;
13404;SDS011;6773;51.192;7.024;2023-07-31T07:37:50;7.57;;;4.63;;
13404;SDS011;6773;51.192;7.024;2023-07-31T07:40:16;7.03;;;4.83;;
13404;SDS011;6773;51.192;7.024;2023-07-31T07:42:42;8.83;;;4.40;;
13404;SDS011;6773;51.192;7.024;2023-07-31T07:45:08;7.63;;;4.23;;
13404;SDS011;6773;51.192;7.024;2023-07-31T07:47:35;8.03;;;4.53;;
13404;SDS011;6773;51.192;7.024;2023-07-31T07:50:01;8.53;;;4.57;;
13404;SDS011;6773;51.192;7.024;2023-07-31T07:52:27;7.83;;;4.60;;
13404;SDS011;6773;51.192;7.024;2023-07-31T07:54:53;8.87;;;4.40;;
13404;SDS011;6773;51.192;7.024;2023-07-31T07:57:19;8.10;;;4.60;;
13404;SDS011;6773;51.192;7.024;2023-07-31T07:59:45;11.07;;;4.60;;
13404;SDS011;6773;51.192;7.024;2023-07-31T08:02:11;6.63;;;4.40;;
13404;SDS011;6773;51.192;7.024;2023-07-31T08:04:37;8.07;;;5.10;;
13404;SDS011;6773;51.192;7.024;2023-07-31T08:07:03;7.87;;;4.87;;
13404;SDS011;6773;51.192;7.024;2023-07-31T08:09:29;7.87;;;4.83;;
13404;SDS011;6773;51.192;7.024;2023-07-31T08:11:55;10.17;;;5.17;;
13404;SDS011;6773;51.192;7.024;2023-07-31T08:14:23;9.53;;;4.67;;
13404;SDS011;6773;51.192;7.024;2023-07-31T08:16:49;9.10;;;5.17;;
13404;SDS011;6773;51.192;7.024;2023-07-31T08:19:14;7.30;;;4.67;;
13404;SDS011;6773;51.192;7.024;2023-07-31T08:21:40;10.73;;;5.20;;
13404;SDS011;6773;51.192;7.024;2023-07-31T08:24:06;6.83;;;4.83;;
13404;SDS011;6773;51.192;7.024;2023-07-31T08:26:33;12.87;;;5.80;;
13404;SDS011;6773;51.192;7.024;2023-07-31T08:28:59;6.93;;;5.23;;
13404;SDS011;6773;51.192;7.024;2023-07-31T08:31:25;7.90;;;4.70;;
13404;SDS011;6773;51.192;7.024;2023-07-31T08:33:52;8.50;;;4.53;;
13404;SDS011;6773;51.192;7.024;2023-07-31T08:36:17;7.57;;;4.80;;
13404;SDS011;6773;51.192;7.024;2023-07-31T08:38:44;9.70;;;4.83;;
13404;SDS011;6773;51.192;7.024;2023-07-31T08:41:10;5.20;;;3.70;;
13404;SDS011;6773;51.192;7.024;2023-07-31T08:43:38;8.67;;;4.37;;
13404;SDS011;6773;51.192;7.024;2023-07-31T08:46:04;6.80;;;3.73;;
13404;SDS011;6773;51.192;7.024;2023-07-31T08:48:30;5.40;;;3.90;;
13404;SDS011;6773;51.192;7.024;2023-07-31T08:50:57;7.47;;;4.63;;
13404;SDS011;6773;51.192;7.024;2023-07-31T08:53:23;7.17;;;4.30;;
13404;SDS011;6773;51.192;7.024;2023-07-31T08:55:49;7.17;;;3.90;;
13404;SDS011;6773;51.192;7.024;2023-07-31T08:58:15;8.80;;;4.60;;
13404;SDS011;6773;51.192;7.024;2023-07-31T09:00:43;6.43;;;4.27;;
13404;SDS011;6773;51.192;7.024;2023-07-31T09:03:10;8.60;;;4.77;;
13404;SDS011;6773;51.192;7.024;2023-07-31T09:05:41;5.30;;;4.20;;
13404;SDS011;6773;51.192;7.024;2023-07-31T09:08:07;5.40;;;4.33;;
13404;SDS011;6773;51.192;7.024;2023-07-31T09:10:35;7.53;;;4.07;;
13404;SDS011;6773;51.192;7.024;2023-07-31T09:13:05;12.03;;;4.43;;
13404;SDS011;6773;51.192;7.024;2023-07-31T09:15:32;5.07;;;4.07;;
13404;SDS011;6773;51.192;7.024;2023-07-31T09:18:00;9.83;;;4.87;;
13404;SDS011;6773;51.192;7.024;2023-07-31T09:20:26;5.77;;;3.83;;
13404;SDS011;6773;51.192;7.024;2023-07-31T09:22:52;6.90;;;4.83;;
13404;SDS011;6773;51.192;7.024;2023-07-31T09:25:23;9.30;;;4.33;;
13404;SDS011;6773;51.192;7.024;2023-07-31T09:27:56;8.53;;;4.93;;
13404;SDS011;6773;51.192;7.024;2023-07-31T09:30:23;8.27;;;4.37;;
13404;SDS011;6773;51.192;7.024;2023-07-31T09:32:49;9.90;;;5.00;;
13404;SDS011;6773;51.192;7.024;2023-07-31T09:35:27;11.20;;;5.07;;
13404;SDS011;6773;51.192;7.024;2023-07-31T09:37:55;9.17;;;5.37;;
13404;SDS011;6773;51.192;7.024;2023-07-31T09:40:29;7.40;;;4.63;;
13404;SDS011;6773;51.192;7.024;2023-07-31T09:42:59;7.70;;;5.70;;
13404;SDS011;6773;51.192;7.024;2023-07-31T09:45:26;11.83;;;5.07;;
13404;SDS011;6773;51.192;7.024;2023-07-31T09:47:52;9.60;;;5.13;;
13404;SDS011;6773;51.192;7.024;2023-07-31T09:50:19;8.13;;;5.07;;
13404;SDS011;6773;51.192;7.024;2023-07-31T09:52:46;8.37;;;5.27;;
13404;SDS011;6773;51.192;7.024;2023-07-31T09:55:12;11.15;;;5.95;;
13404;SDS011;6773;51.192;7.024;2023-07-31T09:57:41;9.67;;;5.03;;
13404;SDS011;6773;51.192;7.024;2023-07-31T10:00:10;11.77;;;5.90;;
13404;SDS011;6773;51.192;7.024;2023-07-31T10:02:36;9.87;;;5.47;;
13404;SDS011;6773;51.192;7.024;2023-07-31T10:05:03;7.27;;;5.27;;
13404;SDS011;6773;51.192;7.024;2023-07-31T10:07:30;8.47;;;5.43;;
13404;SDS011;6773;51.192;7.024;2023-07-31T10:09:57;8.57;;;5.40;;
13404;SDS011;6773;51.192;7.024;2023-07-31T10:12:28;11.37;;;5.60;;
13404;SDS011;6773;51.192;7.024;2023-07-31T10:14:54;10.83;;;6.70;;
13404;SDS011;6773;51.192;7.024;2023-07-31T10:17:21;10.43;;;5.70;;
13404;SDS011;6773;51.192;7.024;2023-07-31T10:19:47;10.00;;;5.70;;
13404;SDS011;6773;51.192;7.024;2023-07-31T10:22:14;7.90;;;6.15;;
13404;SDS011;6773;51.192;7.024;2023-07-31T10:24:40;7.53;;;5.20;;
13404;SDS011;6773;51.192;7.024;2023-07-31T10:27:08;9.63;;;5.55;;
13404;SDS011;6773;51.192;7.024;2023-07-31T10:29:35;10.73;;;6.00;;
13404;SDS011;6773;51.192;7.024;2023-07-31T10:32:04;9.33;;;5.70;;
13404;SDS011;6773;51.192;7.024;2023-07-31T10:34:33;10.57;;;5.60;;
13404;SDS011;6773;51.192;7.024;2023-07-31T10:39:44;6.53;;;5.30;;
13404;SDS011;6773;51.192;7.024;2023-07-31T10:42:20;7.35;;;5.63;;
13404;SDS011;6773;51.192;7.024;2023-07-31T10:44:53;11.87;;;5.87;;
13404;SDS011;6773;51.192;7.024;2023-07-31T10:47:23;14.03;;;5.97;;
13404;SDS011;6773;51.192;7.024;2023-07-31T10:49:53;9.38;;;6.05;;
13404;SDS011;6773;51.192;7.024;2023-07-31T10:52:36;9.98;;;6.60;;
13404;SDS011;6773;51.192;7.024;2023-07-31T10:55:14;12.20;;;6.18;;
13404;SDS011;6773;51.192;7.024;2023-07-31T10:57:44;8.07;;;6.00;;
13404;SDS011;6773;51.192;7.024;2023-07-31T11:00:27;8.18;;;5.82;;
13404;SDS011;6773;51.192;7.024;2023-07-31T11:03:07;7.30;;;5.85;;
13404;SDS011;6773;51.192;7.024;2023-07-31T11:05:52;8.68;;;5.55;;
13404;SDS011;6773;51.192;7.024;2023-07-31T11:10:46;7.72;;;5.63;;
13404;SDS011;6773;51.192;7.024;2023-07-31T11:13:12;8.18;;;4.80;;
13404;SDS011;6773;51.192;7.024;2023-07-31T11:15:38;6.18;;;4.35;;
13404;SDS011;6773;51.192;7.024;2023-07-31T11:18:04;6.05;;;4.32;;
13404;SDS011;6773;51.192;7.024;2023-07-31T11:20:34;10.77;;;4.78;;
13404;SDS011;6773;51.192;7.024;2023-07-31T11:23:01;7.30;;;3.50;;
13404;SDS011;6773;51.192;7.024;2023-07-31T11:25:28;5.97;;;3.20;;
13404;SDS011;6773;51.192;7.024;2023-07-31T11:27:55;5.97;;;3.33;;
13404;SDS011;6773;51.192;7.024;2023-07-31T11:30:21;5.30;;;2.80;;
13404;SDS011;6773;51.192;7.024;2023-07-31T11:32:47;4.88;;;2.60;;
13404;SDS011;6773;51.192;7.024;2023-07-31T11:35:13;3.73;;;2.70;;
13404;SDS011;6773;51.192;7.024;2023-07-31T11:37:40;3.40;;;2.90;;
13404;SDS011;6773;51.192;7.024;2023-07-31T11:40:06;3.20;;;2.42;;
13404;SDS011;6773;51.192;7.024;2023-07-31T11:42:34;4.60;;;2.30;;
13404;SDS011;6773;51.192;7.024;2023-07-31T11:45:01;3.15;;;2.17;;
13404;SDS011;6773;51.192;7.024;2023-07-31T11:47:27;2.63;;;2.08;;
13404;SDS011;6773;51.192;7.024;2023-07-31T11:49:53;3.30;;;2.40;;
13404;SDS011;6773;51.192;7.024;2023-07-31T11:52:20;3.20;;;1.87;;
13404;SDS011;6773;51.192;7.024;2023-07-31T11:54:48;2.15;;;1.50;;
13404;SDS011;6773;51.192;7.024;2023-07-31T11:57:14;2.53;;;2.03;;
13404;SDS011;6773;51.192;7.024;2023-07-31T11:59:41;2.28;;;1.95;;
13404;SDS011;6773;51.192;7.024;2023-07-31T12:02:07;3.75;;;1.70;;
13404;SDS011;6773;51.192;7.024;2023-07-31T12:04:33;2.10;;;1.77;;
13404;SDS011;6773;51.192;7.024;2023-07-31T12:07:00;4.35;;;2.28;;
13404;SDS011;6773;51.192;7.024;2023-07-31T12:09:25;1.92;;;1.73;;
13404;SDS011;6773;51.192;7.024;2023-07-31T12:11:51;2.63;;;1.63;;
13404;SDS011;6773;51.192;7.024;2023-07-31T12:16:47;2.92;;;1.80;;
13404;SDS011;6773;51.192;7.024;2023-07-31T12:19:13;2.08;;;1.58;;
13404;SDS011;6773;51.192;7.024;2023-07-31T12:21:39;2.53;;;1.67;;
13404;SDS011;6773;51.192;7.024;2023-07-31T12:24:05;2.80;;;1.73;;
13404;SDS011;6773;51.192;7.024;2023-07-31T12:26:34;3.10;;;1.70;;
13404;SDS011;6773;51.192;7.024;2023-07-31T12:29:00;1.90;;;1.80;;
13404;SDS011;6773;51.192;7.024;2023-07-31T12:31:27;2.20;;;2.00;;
13404;SDS011;6773;51.192;7.024;2023-07-31T12:33:54;3.38;;;1.85;;
13404;SDS011;6773;51.192;7.024;2023-07-31T12:36:24;2.28;;;2.00;;
13404;SDS011;6773;51.192;7.024;2023-07-31T12:38:50;2.92;;;2.28;;
13404;SDS011;6773;51.192;7.024;2023-07-31T12:41:17;2.17;;;2.00;;
13404;SDS011;6773;51.192;7.024;2023-07-31T12:43:43;2.75;;;2.20;;
13404;SDS011;6773;51.192;7.024;2023-07-31T12:46:10;2.53;;;2.20;;
13404;SDS011;6773;51.192;7.024;2023-07-31T12:48:37;4.20;;;2.15;;
13404;SDS011;6773;51.192;7.024;2023-07-31T12:51:03;4.32;;;2.40;;
13404;SDS011;6773;51.192;7.024;2023-07-31T12:53:30;6.38;;;2.47;;
13404;SDS011;6773;51.192;7.024;2023-07-31T12:55:56;2.75;;;2.45;;
13404;SDS011;6773;51.192;7.024;2023-07-31T12:58:22;3.10;;;2.78;;
13404;SDS011;6773;51.192;7.024;2023-07-31T13:00:48;2.85;;;2.50;;
13404;SDS011;6773;51.192;7.024;2023-07-31T13:03:14;2.47;;;2.25;;
13404;SDS011;6773;51.192;7.024;2023-07-31T13:05:40;3.97;;;2.33;;
13404;SDS011;6773;51.192;7.024;2023-07-31T13:08:06;2.60;;;2.40;;
13404;SDS011;6773;51.192;7.024;2023-07-31T13:10:32;2.67;;;2.22;;
13404;SDS011;6773;51.192;7.024;2023-07-31T13:12:58;4.57;;;2.75;;
13404;SDS011;6773;51.192;7.024;2023-07-31T13:15:24;2.85;;;2.45;;
13404;SDS011;6773;51.192;7.024;2023-07-31T13:17:50;3.60;;;2.75;;
13404;SDS011;6773;51.192;7.024;2023-07-31T13:20:16;3.38;;;2.97;;
13404;SDS011;6773;51.192;7.024;2023-07-31T13:22:42;4.05;;;3.13;;
13404;SDS011;6773;51.192;7.024;2023-07-31T13:25:08;4.70;;;2.60;;
13404;SDS011;6773;51.192;7.024;2023-07-31T13:27:34;3.42;;;2.88;;
13404;SDS011;6773;51.192;7.024;2023-07-31T13:30:01;4.10;;;2.90;;
13404;SDS011;6773;51.192;7.024;2023-07-31T13:32:27;5.25;;;2.80;;
13404;SDS011;6773;51.192;7.024;2023-07-31T13:34:53;3.28;;;2.70;;
13404;SDS011;6773;51.192;7.024;2023-07-31T13:37:18;3.42;;;3.10;;
13404;SDS011;6773;51.192;7.024;2023-07-31T13:39:44;4.15;;;2.70;;
13404;SDS011;6773;51.192;7.024;2023-07-31T13:42:10;3.03;;;2.72;;
13404;SDS011;6773;51.192;7.024;2023-07-31T13:44:40;3.88;;;2.50;;
13404;SDS011;6773;51.192;7.024;2023-07-31T13:47:06;4.13;;;2.85;;
13404;SDS011;6773;51.192;7.024;2023-07-31T13:49:33;3.70;;;2.45;;
13404;SDS011;6773;51.192;7.024;2023-07-31T13:51:59;3.88;;;2.97;;
13404;SDS011;6773;51.192;7.024;2023-07-31T13:54:25;3.95;;;2.75;;
13404;SDS011;6773;51.192;7.024;2023-07-31T13:56:51;3.10;;;2.65;;
13404;SDS011;6773;51.192;7.024;2023-07-31T13:59:17;3.83;;;2.80;;
13404;SDS011;6773;51.192;7.024;2023-07-31T14:01:43;3.70;;;3.17;;
13404;SDS011;6773;51.192;7.024;2023-07-31T14:04:09;2.97;;;2.55;;
13404;SDS011;6773;51.192;7.024;2023-07-31T14:06:35;2.83;;;2.50;;
13404;SDS011;6773;51.192;7.024;2023-07-31T14:09:01;3.17;;;2.50;;
13404;SDS011;6773;51.192;7.024;2023-07-31T14:11:28;2.92;;;2.60;;
13404;SDS011;6773;51.192;7.024;2023-07-31T14:13:54;3.63;;;2.78;;
13404;SDS011;6773;51.192;7.024;2023-07-31T14:16:21;3.33;;;2.50;;
13404;SDS011;6773;51.192;7.024;2023-07-31T14:18:47;3.92;;;3.30;;
13404;SDS011;6773;51.192;7.024;2023-07-31T14:21:13;3.28;;;2.80;;
13404;SDS011;6773;51.192;7.024;2023-07-31T14:23:39;3.30;;;2.67;;
13404;SDS011;6773;51.192;7.024;2023-07-31T14:26:05;4.65;;;2.60;;
13404;SDS011;6773;51.192;7.024;2023-07-31T14:28:31;8.63;;;2.92;;
13404;SDS011;6773;51.192;7.024;2023-07-31T14:30:58;2.75;;;2.53;;
13404;SDS011;6773;51.192;7.024;2023-07-31T14:33:24;4.18;;;2.60;;
13404;SDS011;6773;51.192;7.024;2023-07-31T14:35:51;4.45;;;2.80;;
13404;SDS011;6773;51.192;7.024;2023-07-31T14:38:17;3.83;;;2.58;;
13404;SDS011;6773;51.192;7.024;2023-07-31T14:40:43;4.15;;;2.80;;
13404;SDS011;6773;51.192;7.024;2023-07-31T14:43:09;3.45;;;2.58;;
13404;SDS011;6773;51.192;7.024;2023-07-31T14:45:34;4.40;;;2.47;;
13404;SDS011;6773;51.192;7.024;2023-07-31T14:48:00;3.55;;;2.20;;
13404;SDS011;6773;51.192;7.024;2023-07-31T14:50:26;4.57;;;2.70;;
13404;SDS011;6773;51.192;7.024;2023-07-31T14:52:52;5.25;;;2.60;;
13404;SDS011;6773;51.192;7.024;2023-07-31T14:55:18;3.38;;;2.20;;
13404;SDS011;6773;51.192;7.024;2023-07-31T14:57:44;3.83;;;2.78;;
13404;SDS011;6773;51.192;7.024;2023-07-31T15:00:10;4.53;;;2.75;;
13404;SDS011;6773;51.192;7.024;2023-07-31T15:02:40;3.05;;;2.67;;
13404;SDS011;6773;51.192;7.024;2023-07-31T15:05:06;3.47;;;2.95;;
13404;SDS011;6773;51.192;7.024;2023-07-31T15:07:32;3.08;;;2.78;;
13404;SDS011;6773;51.192;7.024;2023-07-31T15:09:59;4.68;;;3.55;;
13404;SDS011;6773;51.192;7.024;2023-07-31T15:12:25;5.85;;;3.30;;